createdAt,value
2018-10-16T00:01:36.864Z,100796.00
2018-10-16T00:04:06.743Z,100796.00
2018-10-16T00:06:36.895Z,100795.00
2018-10-16T00:09:08.867Z,100801.00
2018-10-16T00:11:38.680Z,100802.00
2018-10-16T00:14:07.966Z,100804.00
2018-10-16T00:16:37.364Z,100802.00
2018-10-16T00:19:07.219Z,100811.00
2018-10-16T00:21:36.596Z,100801.00
2018-10-16T00:24:06.387Z,100817.00
2018-10-16T00:26:36.377Z,100818.00
2018-10-16T00:29:09.594Z,100815.00
2018-10-16T00:31:39.381Z,100822.00
2018-10-16T00:34:09.890Z,100823.00
2018-10-16T00:36:39.647Z,100820.00
2018-10-16T00:39:12.885Z,100824.00
2018-10-16T00:41:42.882Z,100818.00
2018-10-16T00:44:13.489Z,100811.00
2018-10-16T00:46:42.773Z,100821.00
2018-10-16T00:49:12.201Z,100824.00
2018-10-16T00:51:41.529Z,100835.00
2018-10-16T00:54:11.919Z,100831.00
2018-10-16T00:56:41.302Z,100834.00
2018-10-16T00:59:10.646Z,100818.00
2018-10-16T01:01:39.969Z,100846.00
2018-10-16T01:04:09.918Z,100844.00
2018-10-16T01:06:39.299Z,100839.00
2018-10-16T01:09:11.839Z,100836.00
2018-10-16T01:11:41.512Z,100835.00
2018-10-16T01:14:14.041Z,100833.00
2018-10-16T01:16:43.392Z,100830.00
2018-10-16T01:19:12.787Z,100848.00
2018-10-16T01:21:42.205Z,100844.00
2018-10-16T01:24:11.524Z,100847.00
2018-10-16T01:26:40.951Z,100845.00
2018-10-16T01:29:10.722Z,100850.00
2018-10-16T01:31:40.069Z,100850.00
2018-10-16T01:34:09.386Z,100851.00
2018-10-16T01:36:39.360Z,100850.00
2018-10-16T01:39:08.674Z,100850.00
2018-10-16T01:41:38.394Z,100847.00
2018-10-16T01:44:07.751Z,100851.00
2018-10-16T01:46:37.069Z,100847.00
2018-10-16T01:49:06.569Z,100843.00
2018-10-16T01:51:35.991Z,100844.00
2018-10-16T01:54:07.541Z,100851.00
2018-10-16T01:56:36.904Z,100852.00
2018-10-16T01:59:06.429Z,100856.00
2018-10-16T02:01:36.298Z,100863.00
2018-10-16T02:04:05.735Z,100865.00
2018-10-16T02:06:35.097Z,100861.00
2018-10-16T02:09:06.139Z,100860.00
2018-10-16T02:11:35.482Z,100860.00
2018-10-16T02:14:05.036Z,100861.00
2018-10-16T02:16:34.725Z,100865.00
2018-10-16T02:19:04.114Z,100863.00
2018-10-16T02:21:33.421Z,100870.00
2018-10-16T02:24:02.783Z,100869.00
2018-10-16T02:26:32.472Z,100874.00
2018-10-16T02:29:01.789Z,100882.00
2018-10-16T02:31:31.648Z,100888.00
2018-10-16T02:34:00.941Z,100876.00
2018-10-16T02:36:31.516Z,100882.00
2018-10-16T02:39:00.877Z,100881.00
2018-10-16T02:41:30.204Z,100869.00
2018-10-16T02:43:59.460Z,100882.00
2018-10-16T02:46:28.893Z,100880.00
2018-10-16T02:48:58.204Z,100880.00
2018-10-16T02:51:27.596Z,100877.00
2018-10-16T02:53:56.941Z,100874.00
2018-10-16T02:56:26.320Z,100870.00
2018-10-16T02:58:55.663Z,100876.00
2018-10-16T03:01:24.969Z,100867.00
2018-10-16T03:03:54.853Z,100875.00
2018-10-16T03:06:24.211Z,100884.00
2018-10-16T03:08:53.868Z,100892.00
2018-10-16T03:11:23.839Z,100885.00
2018-10-16T03:13:53.268Z,100901.00
2018-10-16T03:16:22.597Z,100895.00
2018-10-16T03:18:51.949Z,100893.00
2018-10-16T03:21:21.802Z,100894.00
2018-10-16T03:23:51.123Z,100901.00
2018-10-16T03:26:20.631Z,100896.00
2018-10-16T03:28:49.996Z,100900.00
2018-10-16T03:31:19.402Z,100905.00
2018-10-16T03:33:48.821Z,100903.00
2018-10-16T03:36:18.211Z,100914.00
2018-10-16T03:38:47.539Z,100913.00
2018-10-16T03:41:17.217Z,100911.00
2018-10-16T03:43:53.882Z,100915.00
2018-10-16T03:46:23.327Z,100915.00
2018-10-16T03:48:52.900Z,100918.00
2018-10-16T03:51:22.663Z,100915.00
2018-10-16T03:53:53.325Z,100919.00
2018-10-16T03:56:22.711Z,100917.00
2018-10-16T03:58:52.089Z,100916.00
2018-10-16T04:01:23.491Z,100927.00
2018-10-16T04:03:53.202Z,100916.00
2018-10-16T04:06:23.229Z,100922.00
2018-10-16T04:08:53.162Z,100918.00
2018-10-16T04:11:22.518Z,100917.00
2018-10-16T04:13:51.944Z,100924.00
2018-10-16T04:16:21.262Z,100922.00
2018-10-16T04:18:50.699Z,100936.00
2018-10-16T04:21:20.253Z,100933.00
2018-10-16T04:23:49.612Z,100927.00
2018-10-16T04:26:19.166Z,100930.00
2018-10-16T04:28:48.480Z,100928.00
2018-10-16T04:31:18.870Z,100921.00
2018-10-16T04:33:48.627Z,100920.00
2018-10-16T04:36:17.978Z,100922.00
2018-10-16T04:38:47.418Z,100923.00
2018-10-16T04:41:16.864Z,100919.00
2018-10-16T04:43:46.290Z,100919.00
2018-10-16T04:46:15.580Z,100925.00
2018-10-16T04:48:45.490Z,100927.00
2018-10-16T04:51:15.036Z,100931.00
2018-10-16T04:53:44.446Z,100922.00
2018-10-16T04:56:14.160Z,100926.00
2018-10-16T04:58:43.461Z,100927.00
2018-10-16T05:01:12.814Z,100930.00
2018-10-16T05:03:42.291Z,100940.00
2018-10-16T05:06:11.685Z,100932.00
2018-10-16T05:08:41.066Z,100937.00
2018-10-16T05:11:10.865Z,100930.00
2018-10-16T05:13:40.288Z,100935.00
2018-10-16T05:16:09.737Z,100937.00
2018-10-16T05:18:39.136Z,100933.00
2018-10-16T05:21:08.525Z,100935.00
2018-10-16T05:23:37.995Z,100942.00
2018-10-16T05:26:07.869Z,100937.00
2018-10-16T05:28:38.437Z,100945.00
2018-10-16T05:31:08.117Z,100944.00
2018-10-16T05:33:37.476Z,100941.00
2018-10-16T05:36:08.668Z,100945.00
2018-10-16T05:38:38.171Z,100953.00
2018-10-16T05:41:07.682Z,100948.00
2018-10-16T05:43:37.518Z,100951.00
2018-10-16T05:46:06.877Z,100959.00
2018-10-16T05:48:36.286Z,100958.00
2018-10-16T05:51:06.159Z,100961.00
2018-10-16T05:53:35.502Z,100966.00
2018-10-16T05:56:06.120Z,100975.00
2018-10-16T05:58:36.157Z,100968.00
2018-10-16T06:01:05.753Z,100975.00
2018-10-16T06:03:35.136Z,100982.00
2018-10-16T06:06:04.474Z,100987.00
2018-10-16T06:08:33.843Z,100977.00
2018-10-16T06:11:03.255Z,100980.00
2018-10-16T06:13:32.577Z,100990.00
2018-10-16T06:16:02.099Z,100985.00
2018-10-16T06:18:31.931Z,100983.00
2018-10-16T06:21:01.485Z,100990.00
2018-10-16T06:23:31.057Z,100999.00
2018-10-16T06:26:00.695Z,101002.00
2018-10-16T06:28:30.054Z,101004.00
2018-10-16T06:31:00.560Z,101003.00
2018-10-16T06:33:31.163Z,100998.00
2018-10-16T06:36:00.496Z,101004.00
2018-10-16T06:38:30.150Z,101007.00
2018-10-16T06:40:59.876Z,101008.00
2018-10-16T06:43:29.187Z,101022.00
2018-10-16T06:45:58.624Z,101018.00
2018-10-16T06:48:28.423Z,101011.00
2018-10-16T06:50:58.025Z,101022.00
2018-10-16T06:53:27.508Z,101018.00
2018-10-16T06:55:57.026Z,101015.00
2018-10-16T06:58:26.401Z,101023.00
2018-10-16T07:00:56.053Z,101010.00
2018-10-16T07:03:25.451Z,101013.00
2018-10-16T07:05:56.002Z,101017.00
2018-10-16T07:08:25.415Z,101023.00
2018-10-16T07:10:54.991Z,101005.00
2018-10-16T07:13:24.971Z,101016.00
2018-10-16T07:15:55.406Z,101018.00
2018-10-16T07:18:24.844Z,101030.00
2018-10-16T07:20:55.250Z,101020.00
2018-10-16T07:23:24.915Z,101023.00
2018-10-16T07:25:54.272Z,101020.00
2018-10-16T07:28:23.870Z,101016.00
2018-10-16T07:30:53.393Z,101023.00
2018-10-16T07:33:22.941Z,101025.00
2018-10-16T07:35:52.416Z,101027.00
2018-10-16T07:38:21.828Z,101029.00
2018-10-16T07:40:55.200Z,101028.00
2018-10-16T07:43:24.602Z,101041.00
2018-10-16T07:45:54.239Z,101040.00
2018-10-16T07:48:23.781Z,101051.00
2018-10-16T07:50:53.368Z,101043.00
2018-10-16T07:53:24.756Z,101042.00
2018-10-16T07:55:54.194Z,101041.00
2018-10-16T07:58:23.689Z,101043.00
2018-10-16T08:00:53.217Z,101039.00
2018-10-16T08:03:24.619Z,101036.00
2018-10-16T08:05:54.118Z,101037.00
2018-10-16T08:08:23.548Z,101035.00
2018-10-16T08:10:52.941Z,101048.00
2018-10-16T08:13:24.338Z,101042.00
2018-10-16T08:15:53.956Z,101043.00
2018-10-16T08:18:23.277Z,101042.00
2018-10-16T08:20:52.694Z,101037.00
2018-10-16T08:23:22.101Z,101045.00
2018-10-16T08:25:51.509Z,101049.00
2018-10-16T08:28:21.552Z,101048.00
2018-10-16T08:30:50.933Z,101051.00
2018-10-16T08:33:21.290Z,101055.00
2018-10-16T08:35:50.710Z,101055.00
2018-10-16T08:38:42.594Z,101049.00
2018-10-16T08:41:14.056Z,101049.00
2018-10-16T08:44:31.997Z,101051.00
2018-10-16T08:47:18.222Z,101058.00
2018-10-16T08:50:04.386Z,101060.00
2018-10-16T08:52:34.341Z,101051.00
2018-10-16T08:55:04.100Z,101060.00
2018-10-16T08:57:33.804Z,101058.00
2018-10-16T09:00:03.160Z,101056.00
2018-10-16T09:02:32.456Z,101058.00
2018-10-16T09:05:02.895Z,101054.00
2018-10-16T09:07:32.799Z,101066.00
2018-10-16T09:10:02.218Z,101058.00
2018-10-16T09:12:31.567Z,101065.00
2018-10-16T09:15:00.901Z,101066.00
2018-10-16T09:17:30.572Z,101060.00
2018-10-16T09:19:59.989Z,101065.00
2018-10-16T09:22:30.014Z,101072.00
2018-10-16T09:25:01.269Z,101075.00
2018-10-16T09:27:33.129Z,101076.00
2018-10-16T09:30:04.429Z,101074.00
2018-10-16T09:32:35.183Z,101077.00
2018-10-16T09:35:05.378Z,101086.00
2018-10-16T09:37:35.108Z,101087.00
2018-10-16T09:40:06.033Z,101081.00
2018-10-16T09:42:36.262Z,101080.00
2018-10-16T09:45:06.359Z,101089.00
2018-10-16T09:47:35.732Z,101086.00
2018-10-16T09:50:07.244Z,101090.00
2018-10-16T09:52:36.694Z,101092.00
2018-10-16T09:55:07.697Z,101096.00
2018-10-16T09:57:37.506Z,101091.00
2018-10-16T10:00:14.754Z,101093.00
2018-10-16T10:02:44.155Z,101093.00
2018-10-16T10:05:16.112Z,101088.00
2018-10-16T10:07:45.535Z,101087.00
2018-10-16T10:10:14.939Z,101089.00
2018-10-16T10:12:44.358Z,101093.00
2018-10-16T10:15:13.711Z,101092.00
2018-10-16T10:17:43.177Z,101093.00
2018-10-16T10:20:12.513Z,101091.00
2018-10-16T10:22:41.879Z,101090.00
2018-10-16T10:25:11.312Z,101086.00
2018-10-16T10:27:40.666Z,101084.00
2018-10-16T10:30:11.852Z,101089.00
2018-10-16T10:32:41.375Z,101084.00
2018-10-16T10:35:14.310Z,101084.00
2018-10-16T10:37:43.702Z,101085.00
2018-10-16T10:40:13.687Z,101089.00
2018-10-16T10:42:43.083Z,101089.00
2018-10-16T10:45:12.551Z,101084.00
2018-10-16T10:47:41.984Z,101080.00
2018-10-16T10:50:13.439Z,101081.00
2018-10-16T10:52:42.797Z,101079.00
2018-10-16T10:55:12.860Z,101074.00
2018-10-16T10:57:42.233Z,101067.00
2018-10-16T11:00:13.784Z,101065.00
2018-10-16T11:02:44.923Z,101072.00
2018-10-16T11:05:14.368Z,101064.00
2018-10-16T11:07:44.373Z,101060.00
2018-10-16T11:10:14.508Z,101068.00
2018-10-16T11:12:45.052Z,101072.00
2018-10-16T11:15:15.528Z,101073.00
2018-10-16T11:17:44.773Z,101069.00
2018-10-16T11:20:14.539Z,101062.00
2018-10-16T11:22:43.978Z,101065.00
2018-10-16T11:25:13.306Z,101066.00
2018-10-16T11:27:42.561Z,101071.00
2018-10-16T11:30:15.385Z,101074.00
2018-10-16T11:32:44.728Z,101072.00
2018-10-16T11:35:14.972Z,101070.00
2018-10-16T11:37:44.371Z,101065.00
2018-10-16T11:40:13.874Z,101073.00
2018-10-16T11:42:43.364Z,101059.00
2018-10-16T11:45:12.849Z,101063.00
2018-10-16T11:47:42.158Z,101066.00
2018-10-16T11:50:12.286Z,101071.00
2018-10-16T11:52:41.956Z,101072.00
2018-10-16T11:55:11.502Z,101072.00
2018-10-16T11:57:41.062Z,101065.00
2018-10-16T12:00:15.644Z,101069.00
2018-10-16T12:02:45.542Z,101068.00
2018-10-16T12:05:14.951Z,101062.00
2018-10-16T12:07:44.277Z,101061.00
2018-10-16T12:10:13.546Z,101062.00
2018-10-16T12:12:42.961Z,101055.00
2018-10-16T12:15:12.369Z,101057.00
2018-10-16T12:17:47.787Z,101055.00
2018-10-16T12:20:20.401Z,101052.00
2018-10-16T12:22:49.814Z,101056.00
2018-10-16T12:25:19.172Z,101056.00
2018-10-16T12:27:48.791Z,101061.00
2018-10-16T12:30:18.186Z,101050.00
2018-10-16T12:32:47.492Z,101048.00
2018-10-16T12:35:18.853Z,101044.00
2018-10-16T12:37:48.184Z,101044.00
2018-10-16T12:40:17.731Z,101060.00
2018-10-16T12:42:47.077Z,101049.00
2018-10-16T12:45:18.541Z,101051.00
2018-10-16T12:47:48.005Z,101057.00
2018-10-16T12:50:17.390Z,101058.00
2018-10-16T12:52:47.001Z,101065.00
2018-10-16T12:55:16.269Z,101047.00
2018-10-16T12:57:45.635Z,101048.00
2018-10-16T13:00:14.993Z,101048.00
2018-10-16T13:02:44.240Z,101051.00
2018-10-16T13:05:13.666Z,101049.00
2018-10-16T13:07:44.036Z,101054.00
2018-10-16T13:10:15.683Z,101050.00
2018-10-16T13:12:45.782Z,101052.00
2018-10-16T13:15:17.250Z,101054.00
2018-10-16T13:17:48.642Z,101057.00
2018-10-16T13:20:17.979Z,101048.00
2018-10-16T13:22:50.017Z,101050.00
2018-10-16T13:25:19.356Z,101045.00
2018-10-16T13:27:48.833Z,101046.00
2018-10-16T13:30:19.241Z,101045.00
2018-10-16T13:32:49.514Z,101046.00
2018-10-16T13:35:19.936Z,101045.00
2018-10-16T13:37:49.820Z,101044.00
2018-10-16T13:40:19.185Z,101040.00
2018-10-16T13:42:48.951Z,101044.00
2018-10-16T13:45:18.397Z,101032.00
2018-10-16T13:47:48.275Z,101036.00
2018-10-16T13:50:17.971Z,101042.00
2018-10-16T13:52:47.518Z,101039.00
2018-10-16T13:55:16.897Z,101040.00
2018-10-16T13:57:46.350Z,101036.00
2018-10-16T14:00:19.029Z,101039.00
2018-10-16T14:02:49.909Z,101044.00
2018-10-16T14:05:19.340Z,101040.00
2018-10-16T14:07:48.726Z,101041.00
2018-10-16T14:10:18.912Z,101039.00
2018-10-16T14:12:48.947Z,101048.00
2018-10-16T14:15:18.875Z,101050.00
2018-10-16T14:17:48.282Z,101044.00
2018-10-16T14:20:18.027Z,101041.00
2018-10-16T14:22:47.713Z,101046.00
2018-10-16T14:25:17.326Z,101046.00
2018-10-16T14:27:47.078Z,101047.00
2018-10-16T14:30:16.960Z,101052.00
2018-10-16T14:32:46.327Z,101048.00
2018-10-16T14:35:15.822Z,101055.00
2018-10-16T14:37:45.173Z,101053.00
2018-10-16T14:40:15.781Z,101056.00
2018-10-16T14:42:45.161Z,101060.00
2018-10-16T14:45:14.939Z,101059.00
2018-10-16T14:47:44.896Z,101056.00
2018-10-16T14:50:14.976Z,101068.00
2018-10-16T14:52:44.269Z,101064.00
2018-10-16T14:55:13.560Z,101061.00
2018-10-16T14:57:42.888Z,101059.00
2018-10-16T15:00:13.260Z,101060.00
2018-10-16T15:02:42.658Z,101059.00
2018-10-16T15:05:12.641Z,101053.00
2018-10-16T15:07:42.355Z,101061.00
2018-10-16T15:10:12.031Z,101054.00
2018-10-16T15:12:41.292Z,101061.00
2018-10-16T15:15:10.894Z,101059.00
2018-10-16T15:17:40.201Z,101064.00
2018-10-16T15:20:11.278Z,101061.00
2018-10-16T15:22:40.604Z,101074.00
2018-10-16T15:25:10.908Z,101064.00
2018-10-16T15:27:45.643Z,101067.00
2018-10-16T15:30:15.264Z,101054.00
2018-10-16T15:32:44.892Z,101073.00
2018-10-16T15:35:14.238Z,101068.00
2018-10-16T15:37:43.802Z,101068.00
2018-10-16T15:40:13.132Z,101068.00
2018-10-16T15:42:42.852Z,101059.00
2018-10-16T15:45:12.925Z,101069.00
2018-10-16T15:47:42.830Z,101066.00
2018-10-16T15:50:12.673Z,101060.00
2018-10-16T15:52:42.216Z,101071.00
2018-10-16T15:55:12.126Z,101072.00
2018-10-16T15:57:41.513Z,101072.00
2018-10-16T16:00:14.641Z,101072.00
2018-10-16T16:02:44.001Z,101078.00
2018-10-16T16:05:13.410Z,101076.00
2018-10-16T16:07:42.812Z,101077.00
2018-10-16T16:10:14.933Z,101076.00
2018-10-16T16:12:44.170Z,101074.00
2018-10-16T16:15:14.233Z,101076.00
2018-10-16T16:17:43.972Z,101071.00
2018-10-16T16:20:14.712Z,101073.00
2018-10-16T16:22:44.656Z,101073.00
2018-10-16T16:25:15.029Z,101079.00
2018-10-16T16:27:44.535Z,101084.00
2018-10-16T16:30:15.935Z,101080.00
2018-10-16T16:32:45.398Z,101084.00
2018-10-16T16:35:15.051Z,101083.00
2018-10-16T16:37:44.331Z,101087.00
2018-10-16T16:40:14.542Z,101088.00
2018-10-16T16:42:44.019Z,101101.00
2018-10-16T16:45:13.574Z,101094.00
2018-10-16T16:47:42.981Z,101094.00
2018-10-16T16:50:13.101Z,101093.00
2018-10-16T16:52:43.029Z,101099.00
2018-10-16T16:55:14.637Z,101109.00
2018-10-16T16:57:44.124Z,101107.00
2018-10-16T17:00:17.868Z,101108.00
2018-10-16T17:02:47.208Z,101111.00
2018-10-16T17:05:16.550Z,101114.00
2018-10-16T17:07:46.008Z,101122.00
2018-10-16T17:10:15.412Z,101112.00
2018-10-16T17:12:44.926Z,101119.00
2018-10-16T17:15:16.235Z,101123.00
2018-10-16T17:17:46.568Z,101121.00
2018-10-16T17:20:15.857Z,101119.00
2018-10-16T17:22:45.217Z,101120.00
2018-10-16T17:25:15.457Z,101125.00
2018-10-16T17:27:45.400Z,101126.00
2018-10-16T17:30:16.583Z,101127.00
2018-10-16T17:32:46.291Z,101134.00
2018-10-16T17:35:15.797Z,101130.00
2018-10-16T17:37:45.160Z,101132.00
2018-10-16T17:40:15.849Z,101134.00
2018-10-16T17:42:45.376Z,101132.00
2018-10-16T17:45:16.007Z,101126.00
2018-10-16T17:47:46.005Z,101127.00
2018-10-16T17:50:17.070Z,101133.00
2018-10-16T17:52:46.706Z,101129.00
2018-10-16T17:55:16.630Z,101132.00
2018-10-16T17:57:46.071Z,101133.00
2018-10-16T18:00:17.125Z,101138.00
2018-10-16T18:02:46.626Z,101136.00
2018-10-16T18:05:16.467Z,101142.00
2018-10-16T18:07:46.060Z,101137.00
2018-10-16T18:10:15.823Z,101134.00
2018-10-16T18:12:46.434Z,101141.00
2018-10-16T18:15:16.932Z,101144.00
2018-10-16T18:17:46.312Z,101143.00
2018-10-16T18:20:16.589Z,101141.00
2018-10-16T18:23:14.238Z,101143.00
2018-10-16T18:25:43.645Z,101147.00
2018-10-16T18:28:13.058Z,101135.00
2018-10-16T18:30:42.355Z,101138.00
2018-10-16T18:33:11.850Z,101140.00
2018-10-16T18:35:41.471Z,101139.00
2018-10-16T18:38:11.055Z,101131.00
2018-10-16T18:40:40.685Z,101131.00
2018-10-16T18:43:11.281Z,101133.00
2018-10-16T18:45:40.811Z,101135.00
2018-10-16T18:48:10.233Z,101139.00
2018-10-16T18:50:39.594Z,101136.00
2018-10-16T18:53:09.324Z,101137.00
2018-10-16T18:55:38.664Z,101144.00
2018-10-16T18:58:08.105Z,101141.00
2018-10-16T19:00:37.733Z,101134.00
2018-10-16T19:03:07.329Z,101143.00
2018-10-16T19:05:36.868Z,101135.00
2018-10-16T19:08:06.447Z,101132.00
2018-10-16T19:10:35.989Z,101133.00
2018-10-16T19:13:05.731Z,101132.00
2018-10-16T19:15:35.096Z,101139.00
2018-10-16T19:18:04.952Z,101138.00
2018-10-16T19:20:34.410Z,101132.00
2018-10-16T19:23:03.960Z,101146.00
2018-10-16T19:25:33.680Z,101145.00
2018-10-16T19:28:03.053Z,101139.00
2018-10-16T19:30:32.762Z,101133.00
2018-10-16T19:33:02.293Z,101139.00
2018-10-16T19:35:31.655Z,101142.00
2018-10-16T19:38:01.232Z,101137.00
2018-10-16T19:40:31.267Z,101145.00
2018-10-16T19:43:00.824Z,101137.00
2018-10-16T19:45:30.654Z,101141.00
2018-10-16T19:47:59.973Z,101136.00
2018-10-16T19:50:29.694Z,101139.00
2018-10-16T19:52:59.466Z,101127.00
2018-10-16T19:55:28.898Z,101138.00
2018-10-16T19:57:58.253Z,101132.00
2018-10-16T20:00:29.570Z,101136.00
2018-10-16T20:02:58.978Z,101129.00
2018-10-16T20:05:28.264Z,101142.00
2018-10-16T20:07:57.638Z,101135.00
2018-10-16T20:10:28.005Z,101135.00
2018-10-16T20:12:57.480Z,101140.00
2018-10-16T20:15:26.787Z,101137.00
2018-10-16T20:18:00.196Z,101139.00
2018-10-16T20:20:30.070Z,101130.00
2018-10-16T20:22:59.498Z,101139.00
2018-10-16T20:25:29.286Z,101139.00
2018-10-16T20:27:58.915Z,101143.00
2018-10-16T20:30:28.318Z,101139.00
2018-10-16T20:32:57.811Z,101144.00
2018-10-16T20:35:27.614Z,101147.00
2018-10-16T20:37:57.741Z,101143.00
2018-10-16T20:40:27.871Z,101142.00
2018-10-16T20:42:58.371Z,101138.00
2018-10-16T20:45:28.072Z,101133.00
2018-10-16T20:47:57.748Z,101131.00
2018-10-16T20:50:27.624Z,101129.00
2018-10-16T20:52:56.983Z,101137.00
2018-10-16T20:55:26.320Z,101127.00
2018-10-16T20:57:55.714Z,101128.00
2018-10-16T21:00:25.544Z,101126.00
2018-10-16T21:02:55.142Z,101124.00
2018-10-16T21:05:24.862Z,101130.00
2018-10-16T21:07:54.222Z,101130.00
2018-10-16T21:10:25.073Z,101138.00
2018-10-16T21:12:54.460Z,101141.00
2018-10-16T21:15:23.825Z,101138.00
2018-10-16T21:17:53.532Z,101133.00
2018-10-16T21:20:23.510Z,101136.00
2018-10-16T21:22:53.284Z,101138.00
2018-10-16T21:25:22.705Z,101141.00
2018-10-16T21:27:51.970Z,101132.00
2018-10-16T21:30:21.320Z,101135.00
2018-10-16T21:32:52.308Z,101139.00
2018-10-16T21:35:24.654Z,101133.00
2018-10-16T21:37:55.055Z,101138.00
2018-10-16T21:40:24.385Z,101146.00
2018-10-16T21:42:53.934Z,101133.00
2018-10-16T21:45:23.348Z,101127.00
2018-10-16T21:47:52.637Z,101135.00
2018-10-16T21:50:21.958Z,101126.00
2018-10-16T21:52:51.549Z,101126.00
2018-10-16T21:55:21.052Z,101118.00
2018-10-16T21:57:50.373Z,101119.00
2018-10-16T22:00:24.849Z,101124.00
2018-10-16T22:02:54.408Z,101125.00
2018-10-16T22:05:24.905Z,101127.00
2018-10-16T22:07:55.647Z,101117.00
2018-10-16T22:10:25.002Z,101125.00
2018-10-16T22:12:54.441Z,101115.00
2018-10-16T22:15:23.975Z,101116.00
2018-10-16T22:17:53.231Z,101117.00
2018-10-16T22:20:22.548Z,101116.00
2018-10-16T22:22:51.916Z,101122.00
2018-10-16T22:25:21.479Z,101112.00
2018-10-16T22:27:50.822Z,101113.00
2018-10-16T22:30:20.122Z,101113.00
2018-10-16T22:32:49.470Z,101122.00
2018-10-16T22:35:18.887Z,101115.00
2018-10-16T22:37:48.249Z,101113.00
2018-10-16T22:40:17.558Z,101113.00
2018-10-16T22:42:46.999Z,101113.00
2018-10-16T22:45:16.486Z,101118.00
2018-10-16T22:47:45.957Z,101119.00
2018-10-16T22:50:15.449Z,101120.00
2018-10-16T22:52:44.714Z,101110.00
2018-10-16T22:55:14.118Z,101116.00
2018-10-16T22:57:43.350Z,101120.00
2018-10-16T23:00:17.329Z,101115.00
2018-10-16T23:02:47.656Z,101121.00
2018-10-16T23:05:17.263Z,101115.00
2018-10-16T23:07:47.370Z,101117.00
2018-10-16T23:10:16.655Z,101119.00
2018-10-16T23:12:50.596Z,101111.00
2018-10-16T23:15:20.073Z,101119.00
2018-10-16T23:17:49.626Z,101116.00
2018-10-16T23:20:19.004Z,101117.00
2018-10-16T23:22:48.496Z,101114.00
2018-10-16T23:25:18.112Z,101112.00
2018-10-16T23:27:47.349Z,101110.00
2018-10-16T23:30:16.917Z,101102.00
2018-10-16T23:32:46.514Z,101104.00
2018-10-16T23:35:16.246Z,101107.00
2018-10-16T23:37:45.585Z,101111.00
2018-10-16T23:40:14.932Z,101107.00
2018-10-16T23:42:44.244Z,101105.00
2018-10-16T23:45:13.540Z,101101.00
2018-10-16T23:47:43.091Z,101110.00
2018-10-16T23:50:12.369Z,101110.00
2018-10-16T23:52:41.919Z,101112.00
2018-10-16T23:55:11.700Z,101109.00
2018-10-16T23:57:41.146Z,101108.00
